createdAt,value
2022-09-23T00:01:24.283Z,72.04
2022-09-23T00:03:52.353Z,72.12
2022-09-23T00:06:22.797Z,72.11
2022-09-23T00:08:51.823Z,72.33
2022-09-23T00:11:25.650Z,72.54
2022-09-23T00:13:56.745Z,72.63
2022-09-23T00:16:34.682Z,72.49
2022-09-23T00:19:04.059Z,72.39
2022-09-23T00:21:31.818Z,72.24
2022-09-23T00:23:59.619Z,72.05
2022-09-23T00:26:27.449Z,71.95
2022-09-23T00:28:55.099Z,71.82
2022-09-23T00:31:25.926Z,71.65
2022-09-23T00:33:59.857Z,71.45
2022-09-23T00:36:29.093Z,71.30
2022-09-23T00:38:56.816Z,71.47
2022-09-23T00:41:25.451Z,71.71
2022-09-23T00:43:59.296Z,71.97
2022-09-23T00:46:40.176Z,72.10
2022-09-23T00:49:29.139Z,72.18
2022-09-23T00:52:05.176Z,72.34
2022-09-23T00:54:33.477Z,72.41
2022-09-23T00:57:04.122Z,72.45
2022-09-23T00:59:32.760Z,72.44
2022-09-23T01:02:02.725Z,72.60
2022-09-23T01:04:31.397Z,72.64
2022-09-23T01:06:59.113Z,72.85
2022-09-23T01:09:27.121Z,72.86
2022-09-23T01:12:12.109Z,72.99
2022-09-23T01:15:12.416Z,73.18
2022-09-23T01:18:09.955Z,73.34
2022-09-23T01:20:55.975Z,73.51
2022-09-23T01:24:17.723Z,73.64
2022-09-23T01:27:16.194Z,73.80
2022-09-23T01:30:32.494Z,73.88
2022-09-23T01:33:12.032Z,73.98
2022-09-23T01:35:48.645Z,74.00
2022-09-23T01:38:54.121Z,74.04
2022-09-23T01:41:41.041Z,74.00
2022-09-23T01:44:38.702Z,74.06
2022-09-23T01:47:17.477Z,74.08
2022-09-23T01:50:29.567Z,73.91
2022-09-23T01:53:08.553Z,73.83
2022-09-23T01:55:44.687Z,73.57
2022-09-23T01:58:20.695Z,73.42
2022-09-23T02:00:57.083Z,73.34
2022-09-23T02:03:32.930Z,73.31
2022-09-23T02:06:14.879Z,73.31
2022-09-23T02:08:55.458Z,73.25
2022-09-23T02:11:24.293Z,73.23
2022-09-23T02:14:09.328Z,73.14
2022-09-23T02:16:51.072Z,73.16
2022-09-23T02:19:24.277Z,73.12
2022-09-23T02:21:58.427Z,73.05
2022-09-23T02:24:31.468Z,73.09
2022-09-23T02:27:07.339Z,73.13
2022-09-23T02:29:58.218Z,73.22
2022-09-23T02:32:43.172Z,73.18
2022-09-23T02:35:36.727Z,73.16
2022-09-23T02:38:44.665Z,73.10
2022-09-23T02:41:29.517Z,73.24
2022-09-23T02:44:05.731Z,73.26
2022-09-23T02:46:33.932Z,73.22
2022-09-23T02:49:10.774Z,73.27
2022-09-23T02:51:40.272Z,73.36
2022-09-23T02:54:16.403Z,73.42
2022-09-23T02:56:43.745Z,73.34
2022-09-23T02:59:12.534Z,73.52
2022-09-23T03:02:11.214Z,73.70
2022-09-23T03:05:22.800Z,73.71
2022-09-23T03:08:19.058Z,73.67
2022-09-23T03:11:04.735Z,73.66
2022-09-23T03:13:56.256Z,73.64
2022-09-23T03:16:44.012Z,73.54
2022-09-23T03:19:34.429Z,73.37
2022-09-23T03:22:28.101Z,73.31
2022-09-23T03:25:03.613Z,73.27
2022-09-23T03:27:34.524Z,73.14
2022-09-23T03:30:05.243Z,73.16
2022-09-23T03:32:34.744Z,73.11
2022-09-23T03:35:05.504Z,73.22
2022-09-23T03:37:41.496Z,73.21
2022-09-23T03:40:28.996Z,73.23
2022-09-23T03:42:58.294Z,73.32
2022-09-23T03:45:34.164Z,73.41
2022-09-23T03:48:02.028Z,73.47
2022-09-23T03:50:30.270Z,73.56
2022-09-23T03:52:58.827Z,73.62
2022-09-23T03:55:26.491Z,73.66
2022-09-23T03:57:55.064Z,73.72
2022-09-23T04:00:22.664Z,73.75
2022-09-23T04:02:50.474Z,73.72
2022-09-23T04:05:18.668Z,73.80
2022-09-23T04:07:47.597Z,73.91
2022-09-23T04:10:15.404Z,74.02
2022-09-23T04:12:42.981Z,74.07
2022-09-23T04:15:10.742Z,74.16
2022-09-23T04:17:38.259Z,74.24
2022-09-23T04:20:07.033Z,74.25
2022-09-23T04:22:34.932Z,74.26
2022-09-23T04:25:02.865Z,74.24
2022-09-23T04:27:34.233Z,74.29
2022-09-23T04:29:59.633Z,74.41
2022-09-23T04:32:27.123Z,74.35
2022-09-23T04:34:54.948Z,74.27
2022-09-23T04:37:22.264Z,74.18
2022-09-23T04:39:49.728Z,74.08
2022-09-23T04:42:17.057Z,73.98
2022-09-23T04:44:44.420Z,73.87
2022-09-23T04:47:11.995Z,73.80
2022-09-23T04:49:40.226Z,73.74
2022-09-23T04:52:07.868Z,73.71
2022-09-23T04:54:36.288Z,73.65
2022-09-23T04:57:04.131Z,73.59
2022-09-23T04:59:31.576Z,73.52
2022-09-23T05:01:59.138Z,73.52
2022-09-23T05:04:26.886Z,73.64
2022-09-23T05:06:54.471Z,73.69
2022-09-23T05:09:21.951Z,73.80
2022-09-23T05:11:49.713Z,73.79
2022-09-23T05:14:17.509Z,73.83
2022-09-23T05:16:45.317Z,73.87
2022-09-23T05:19:13.005Z,73.86
2022-09-23T05:21:40.528Z,73.92
2022-09-23T05:24:09.241Z,73.87
2022-09-23T05:26:36.795Z,73.89
2022-09-23T05:29:04.483Z,73.93
2022-09-23T05:31:32.258Z,73.75
2022-09-23T05:34:03.426Z,73.89
2022-09-23T05:36:37.934Z,73.97
2022-09-23T05:39:04.828Z,74.06
2022-09-23T05:41:33.372Z,74.08
2022-09-23T05:44:01.397Z,74.27
2022-09-23T05:46:30.923Z,73.94
2022-09-23T05:49:02.895Z,74.04
2022-09-23T05:51:31.648Z,73.49
2022-09-23T05:54:02.367Z,73.41
2022-09-23T05:56:31.299Z,73.50
2022-09-23T05:59:01.294Z,73.52
2022-09-23T06:01:33.153Z,73.18
2022-09-23T06:04:02.828Z,72.75
2022-09-23T06:06:38.167Z,72.25
2022-09-23T06:09:09.261Z,72.01
2022-09-23T06:11:37.155Z,71.77
2022-09-23T06:14:05.387Z,71.82
2022-09-23T06:16:35.108Z,71.97
2022-09-23T06:19:05.799Z,72.14
2022-09-23T06:21:37.865Z,72.05
2022-09-23T06:24:10.557Z,72.18
2022-09-23T06:26:39.516Z,72.30
2022-09-23T06:29:13.926Z,72.45
2022-09-23T06:31:42.698Z,72.73
2022-09-23T06:34:13.773Z,72.58
2022-09-23T06:36:45.359Z,72.52
2022-09-23T06:39:14.720Z,72.68
2022-09-23T06:41:44.245Z,72.86
2022-09-23T06:44:15.443Z,72.90
2022-09-23T06:46:43.614Z,73.04
2022-09-23T06:49:12.508Z,72.90
2022-09-23T06:51:40.793Z,72.89
2022-09-23T06:54:08.915Z,72.68
2022-09-23T06:56:39.372Z,71.89
2022-09-23T06:59:09.296Z,71.85
2022-09-23T07:01:37.734Z,72.04
2022-09-23T07:04:06.949Z,72.21
2022-09-23T07:06:34.619Z,72.35
2022-09-23T07:09:02.802Z,72.75
2022-09-23T07:11:30.312Z,72.69
2022-09-23T07:13:58.238Z,72.51
2022-09-23T07:16:25.969Z,72.77
2022-09-23T07:18:54.908Z,73.04
2022-09-23T07:21:22.442Z,73.13
2022-09-23T07:23:51.293Z,73.20
2022-09-23T07:26:20.377Z,73.21
2022-09-23T07:28:56.397Z,73.52
2022-09-23T07:31:35.400Z,73.86
2022-09-23T07:33:57.218Z,74.35
2022-09-23T07:36:27.127Z,74.24
2022-09-23T07:38:57.479Z,74.37
2022-09-23T07:41:25.543Z,74.37
2022-09-23T07:43:57.267Z,74.35
2022-09-23T07:46:28.442Z,74.26
2022-09-23T07:48:56.138Z,74.31
2022-09-23T07:51:36.027Z,73.98
2022-09-23T07:54:01.909Z,73.87
2022-09-23T07:56:30.486Z,73.30
2022-09-23T07:59:03.136Z,73.21
2022-09-23T08:01:40.765Z,73.61
2022-09-23T08:04:13.903Z,73.42
2022-09-23T08:06:48.582Z,73.35
2022-09-23T08:09:19.511Z,73.37
2022-09-23T08:11:50.293Z,72.41
2022-09-23T08:14:18.110Z,72.34
2022-09-23T08:16:47.090Z,71.98
2022-09-23T08:19:15.420Z,71.84
2022-09-23T08:21:46.401Z,72.07
2022-09-23T08:24:18.033Z,72.48
2022-09-23T08:26:47.185Z,72.16
2022-09-23T08:29:17.500Z,72.41
2022-09-23T08:31:45.734Z,72.25
2022-09-23T08:34:13.661Z,71.72
2022-09-23T08:36:41.303Z,71.89
2022-09-23T08:39:16.563Z,71.79
2022-09-23T08:41:57.492Z,71.57
2022-09-23T08:44:29.950Z,71.79
2022-09-23T08:47:11.430Z,72.03
2022-09-23T08:50:03.123Z,72.23
2022-09-23T08:52:41.503Z,72.48
2022-09-23T08:55:13.976Z,72.89
2022-09-23T08:58:26.022Z,72.56
2022-09-23T09:01:40.758Z,72.59
2022-09-23T09:04:28.425Z,72.58
2022-09-23T09:09:53.323Z,71.58
2022-09-23T09:12:43.321Z,71.20
2022-09-23T09:15:26.194Z,71.34
2022-09-23T09:18:13.043Z,71.30
2022-09-23T09:21:09.825Z,71.48
2022-09-23T09:23:59.559Z,70.02
2022-09-23T09:26:34.280Z,70.59
2022-09-23T09:29:34.967Z,70.76
2022-09-23T09:31:56.412Z,70.50
2022-09-23T09:34:46.798Z,70.40
2022-09-23T09:37:35.425Z,69.99
2022-09-23T09:40:04.381Z,69.32
2022-09-23T09:42:47.470Z,69.25
2022-09-23T09:45:44.539Z,69.12
2022-09-23T09:48:32.876Z,68.91
2022-09-23T09:51:22.939Z,69.47
2022-09-23T09:53:55.597Z,68.74
2022-09-23T09:56:31.681Z,68.22
2022-09-23T09:59:03.650Z,68.46
2022-09-23T10:01:34.246Z,68.06
2022-09-23T10:04:22.014Z,68.74
2022-09-23T10:07:15.523Z,68.51
2022-09-23T10:09:51.756Z,68.86
2022-09-23T10:12:22.579Z,68.43
2022-09-23T10:14:57.295Z,68.16
2022-09-23T10:17:36.066Z,68.54
2022-09-23T10:20:09.747Z,68.04
2022-09-23T10:22:41.373Z,66.86
2022-09-23T10:25:24.082Z,63.78
2022-09-23T10:27:51.602Z,63.58
2022-09-23T10:30:26.958Z,63.61
2022-09-23T10:32:56.448Z,64.42
2022-09-23T10:35:26.079Z,64.79
2022-09-23T10:37:59.405Z,65.07
2022-09-23T10:40:56.371Z,63.56
2022-09-23T10:43:54.155Z,64.21
2022-09-23T10:46:45.174Z,62.17
2022-09-23T10:49:27.256Z,63.17
2022-09-23T10:52:38.711Z,63.25
2022-09-23T10:55:53.210Z,62.24
2022-09-23T10:58:35.024Z,63.27
2022-09-23T11:01:25.026Z,63.04
2022-09-23T11:04:26.391Z,64.11
2022-09-23T11:07:02.351Z,64.19
2022-09-23T11:09:47.174Z,64.79
2022-09-23T11:12:44.488Z,65.16
2022-09-23T11:15:30.669Z,64.97
2022-09-23T11:18:38.566Z,62.74
2022-09-23T11:21:38.504Z,62.11
2022-09-23T11:24:34.646Z,61.24
2022-09-23T11:27:36.445Z,62.50
2022-09-23T11:30:13.962Z,63.06
2022-09-23T11:33:13.704Z,61.01
2022-09-23T11:35:49.535Z,60.09
2022-09-23T11:38:27.129Z,60.29
2022-09-23T11:41:23.206Z,60.31
2022-09-23T11:44:04.499Z,60.72
2022-09-23T11:46:52.394Z,60.89
2022-09-23T11:49:39.915Z,60.18
2022-09-23T11:52:35.564Z,60.81
2022-09-23T11:55:19.217Z,60.90
2022-09-23T11:57:53.930Z,61.85
2022-09-23T12:00:24.692Z,60.89
2022-09-23T12:03:29.722Z,60.44
2022-09-23T12:05:58.462Z,61.05
2022-09-23T12:08:32.633Z,58.57
2022-09-23T12:11:39.483Z,55.05
2022-09-23T12:14:37.961Z,57.96
2022-09-23T12:17:47.045Z,58.74
2022-09-23T12:20:44.080Z,58.36
2022-09-23T12:23:44.579Z,57.06
2022-09-23T12:26:19.812Z,56.99
2022-09-23T12:28:50.831Z,55.64
2022-09-23T12:31:25.139Z,56.91
2022-09-23T12:33:54.177Z,56.88
2022-09-23T12:36:34.905Z,56.91
2022-09-23T12:39:17.514Z,57.44
2022-09-23T12:41:48.670Z,57.74
2022-09-23T12:44:40.120Z,57.95
2022-09-23T12:47:23.804Z,57.68
2022-09-23T12:49:53.049Z,58.00
2022-09-23T12:52:30.985Z,57.56
2022-09-23T12:55:12.879Z,57.45
2022-09-23T12:57:41.751Z,57.37
2022-09-23T13:00:23.278Z,57.01
2022-09-23T13:03:17.311Z,54.96
2022-09-23T13:06:11.276Z,55.34
2022-09-23T13:08:41.887Z,56.79
2022-09-23T13:11:26.940Z,57.37
2022-09-23T13:13:59.852Z,57.91
2022-09-23T13:16:34.103Z,58.02
2022-09-23T13:19:05.439Z,58.13
2022-09-23T13:21:49.248Z,57.60
2022-09-23T13:24:33.595Z,57.74
2022-09-23T13:27:18.612Z,58.30
2022-09-23T13:30:07.144Z,58.59
2022-09-23T13:32:43.061Z,57.90
2022-09-23T13:35:33.819Z,57.89
2022-09-23T13:38:11.333Z,58.18
2022-09-23T13:40:41.302Z,58.44
2022-09-23T13:43:33.534Z,58.53
2022-09-23T13:46:04.436Z,58.78
2022-09-23T13:48:32.594Z,58.85
2022-09-23T13:51:06.426Z,58.56
2022-09-23T13:53:34.087Z,58.68
2022-09-23T13:56:06.571Z,58.65
2022-09-23T13:58:35.772Z,56.70
2022-09-23T14:01:23.959Z,57.69
2022-09-23T14:03:51.596Z,57.51
2022-09-23T14:06:19.286Z,56.38
2022-09-23T14:08:49.656Z,55.92
2022-09-23T14:11:21.978Z,54.19
2022-09-23T14:13:54.463Z,53.97
2022-09-23T14:16:25.744Z,55.06
2022-09-23T14:18:59.970Z,55.96
2022-09-23T14:21:39.155Z,56.51
2022-09-23T14:24:20.814Z,56.50
2022-09-23T14:27:07.662Z,56.34
2022-09-23T14:29:42.300Z,55.93
2022-09-23T14:32:15.779Z,55.35
2022-09-23T14:35:03.925Z,55.96
2022-09-23T14:38:01.536Z,56.05
2022-09-23T14:40:37.198Z,56.46
2022-09-23T14:43:22.677Z,56.43
2022-09-23T14:45:54.664Z,55.87
2022-09-23T14:48:29.843Z,54.21
2022-09-23T14:51:07.455Z,55.35
2022-09-23T14:53:40.540Z,55.95
2022-09-23T14:56:19.963Z,56.27
2022-09-23T14:58:57.985Z,56.11
2022-09-23T15:01:38.609Z,55.85
2022-09-23T15:04:23.445Z,55.97
2022-09-23T15:07:02.107Z,55.59
2022-09-23T15:09:35.049Z,55.40
2022-09-23T15:12:15.660Z,55.76
2022-09-23T15:14:49.300Z,55.78
2022-09-23T15:17:32.049Z,56.07
2022-09-23T15:20:17.294Z,56.34
2022-09-23T15:22:53.304Z,56.62
2022-09-23T15:25:39.555Z,57.37
2022-09-23T15:28:18.485Z,57.08
2022-09-23T15:30:46.417Z,57.72
2022-09-23T15:33:15.855Z,57.86
2022-09-23T15:35:47.977Z,58.32
2022-09-23T15:38:17.063Z,58.69
2022-09-23T15:40:44.948Z,58.70
2022-09-23T15:43:21.412Z,58.82
2022-09-23T15:45:58.747Z,59.15
2022-09-23T15:48:32.034Z,59.43
2022-09-23T15:51:03.096Z,59.67
2022-09-23T15:53:31.005Z,60.23
2022-09-23T15:55:59.549Z,60.18
2022-09-23T15:58:27.028Z,60.30
2022-09-23T16:00:57.022Z,60.51
2022-09-23T16:03:28.951Z,60.67
2022-09-23T16:06:01.848Z,61.06
2022-09-23T16:08:32.167Z,61.32
2022-09-23T16:10:59.776Z,61.48
2022-09-23T16:13:27.526Z,61.80
2022-09-23T16:15:55.733Z,62.13
2022-09-23T16:18:22.892Z,62.30
2022-09-23T16:20:50.668Z,62.69
2022-09-23T16:23:33.605Z,63.16
2022-09-23T16:26:09.449Z,63.53
2022-09-23T16:28:37.291Z,63.76
2022-09-23T16:31:05.238Z,63.93
2022-09-23T16:33:33.492Z,63.91
2022-09-23T16:36:01.697Z,64.23
2022-09-23T16:38:33.747Z,64.50
2022-09-23T16:41:02.483Z,64.59
2022-09-23T16:43:31.999Z,64.78
2022-09-23T16:45:59.567Z,65.04
2022-09-23T16:48:27.251Z,65.20
2022-09-23T16:50:54.652Z,65.68
2022-09-23T16:53:23.205Z,65.80
2022-09-23T16:55:52.695Z,65.90
2022-09-23T16:58:20.132Z,66.00
2022-09-23T17:01:06.388Z,66.06
2022-09-23T17:03:40.310Z,66.40
2022-09-23T17:06:12.979Z,66.61
2022-09-23T17:08:41.904Z,66.81
2022-09-23T17:11:10.387Z,67.01
2022-09-23T17:13:40.001Z,66.48
2022-09-23T17:16:08.149Z,65.75
2022-09-23T17:18:35.973Z,65.41
2022-09-23T17:21:06.919Z,65.16
2022-09-23T17:23:36.475Z,65.09
2022-09-23T17:26:12.012Z,64.98
2022-09-23T17:28:39.328Z,64.73
2022-09-23T17:31:08.138Z,64.99
2022-09-23T17:33:38.922Z,65.15
2022-09-23T17:36:10.221Z,65.22
2022-09-23T17:38:41.276Z,65.30
2022-09-23T17:41:09.511Z,65.40
2022-09-23T17:43:39.230Z,65.41
2022-09-23T17:46:12.448Z,65.04
2022-09-23T17:48:42.774Z,65.06
2022-09-23T17:51:18.340Z,65.16
2022-09-23T17:53:47.798Z,65.19
2022-09-23T17:56:22.134Z,65.40
2022-09-23T17:58:50.048Z,65.26
2022-09-23T18:01:24.599Z,65.01
2022-09-23T18:04:00.413Z,64.84
2022-09-23T18:06:35.042Z,64.50
2022-09-23T18:09:06.552Z,64.58
2022-09-23T18:11:38.425Z,64.68
2022-09-23T18:14:19.537Z,64.70
2022-09-23T18:16:50.327Z,64.53
2022-09-23T18:19:21.020Z,64.51
2022-09-23T18:21:55.620Z,64.59
2022-09-23T18:24:32.764Z,64.60
2022-09-23T18:26:55.258Z,64.68
2022-09-23T18:29:22.697Z,64.72
2022-09-23T18:31:50.462Z,64.77
2022-09-23T18:34:18.349Z,64.90
2022-09-23T18:36:46.412Z,65.29
2022-09-23T18:39:14.924Z,65.57
2022-09-23T18:41:42.670Z,65.66
2022-09-23T18:44:10.366Z,65.71
2022-09-23T18:46:38.407Z,65.55
2022-09-23T18:49:24.503Z,65.36
2022-09-23T18:51:57.132Z,65.35
2022-09-23T18:54:28.469Z,65.67
2022-09-23T18:56:57.183Z,65.92
2022-09-23T18:59:28.136Z,65.94
2022-09-23T19:01:57.484Z,65.90
2022-09-23T19:04:27.129Z,65.80
2022-09-23T19:06:56.048Z,65.69
2022-09-23T19:09:23.871Z,65.79
2022-09-23T19:11:52.091Z,65.93
2022-09-23T19:14:20.270Z,65.90
2022-09-23T19:16:50.923Z,65.92
2022-09-23T19:19:18.655Z,65.97
2022-09-23T19:21:46.247Z,66.28
2022-09-23T19:24:16.379Z,66.54
2022-09-23T19:26:43.902Z,66.33
2022-09-23T19:29:18.834Z,66.59
2022-09-23T19:31:46.376Z,66.75
2022-09-23T19:34:18.284Z,66.85
2022-09-23T19:36:47.495Z,66.86
2022-09-23T19:39:19.715Z,66.86
2022-09-23T19:41:48.351Z,66.96
2022-09-23T19:44:16.602Z,66.82
2022-09-23T19:46:51.913Z,66.99
2022-09-23T19:49:18.285Z,67.27
2022-09-23T19:51:46.747Z,67.42
2022-09-23T19:54:21.356Z,67.53
2022-09-23T19:56:49.393Z,67.58
2022-09-23T19:59:19.202Z,67.63
2022-09-23T20:01:48.528Z,67.74
2022-09-23T20:04:16.721Z,67.87
2022-09-23T20:06:47.801Z,67.98
2022-09-23T20:09:15.424Z,68.24
2022-09-23T20:11:43.636Z,68.44
2022-09-23T20:14:12.451Z,68.72
2022-09-23T20:16:40.250Z,68.96
2022-09-23T20:19:11.511Z,69.05
2022-09-23T20:21:39.087Z,69.25
2022-09-23T20:24:08.834Z,69.32
2022-09-23T20:26:55.315Z,69.28
2022-09-23T20:29:23.247Z,69.34
2022-09-23T20:31:50.703Z,69.59
2022-09-23T20:34:18.092Z,69.77
2022-09-23T20:36:45.402Z,69.69
2022-09-23T20:39:12.914Z,69.56
2022-09-23T20:41:41.154Z,69.45
2022-09-23T20:44:14.230Z,69.41
2022-09-23T20:46:48.528Z,69.52
2022-09-23T20:49:16.725Z,69.51
2022-09-23T20:51:44.464Z,69.49
2022-09-23T20:54:11.981Z,69.53
2022-09-23T20:56:39.830Z,69.64
2022-09-23T20:59:09.394Z,69.79
2022-09-23T21:01:36.976Z,69.82
2022-09-23T21:04:05.292Z,69.88
2022-09-23T21:06:36.006Z,69.89
2022-09-23T21:09:05.441Z,70.00
2022-09-23T21:11:33.376Z,70.11
2022-09-23T21:14:01.631Z,70.25
2022-09-23T21:16:30.011Z,70.36
2022-09-23T21:18:59.289Z,70.50
2022-09-23T21:21:27.234Z,70.63
2022-09-23T21:23:58.214Z,70.82
2022-09-23T21:26:26.110Z,71.03
2022-09-23T21:28:58.358Z,71.06
2022-09-23T21:31:33.143Z,71.22
2022-09-23T21:34:04.185Z,71.44
2022-09-23T21:36:38.115Z,71.54
2022-09-23T21:39:08.798Z,71.67
2022-09-23T21:41:36.922Z,71.71
2022-09-23T21:44:07.676Z,71.80
2022-09-23T21:46:35.731Z,71.94
2022-09-23T21:49:04.503Z,72.00
2022-09-23T21:51:40.097Z,72.02
2022-09-23T21:54:14.952Z,72.03
2022-09-23T21:56:43.868Z,72.09
2022-09-23T21:59:11.272Z,71.98
2022-09-23T22:01:43.100Z,72.06
2022-09-23T22:04:17.922Z,71.94
2022-09-23T22:06:46.243Z,71.85
2022-09-23T22:09:18.123Z,71.82
2022-09-23T22:12:04.834Z,71.79
2022-09-23T22:14:33.156Z,71.77
2022-09-23T22:17:03.187Z,71.74
2022-09-23T22:19:35.529Z,71.70
2022-09-23T22:22:13.574Z,71.76
2022-09-23T22:24:42.606Z,71.82
2022-09-23T22:27:12.124Z,71.82
2022-09-23T22:29:58.166Z,71.81
2022-09-23T22:32:41.217Z,71.83
2022-09-23T22:35:11.578Z,71.86
2022-09-23T22:37:39.095Z,71.89
2022-09-23T22:40:10.899Z,71.92
2022-09-23T22:42:38.821Z,71.95
2022-09-23T22:45:08.757Z,72.00
2022-09-23T22:47:39.131Z,72.03
2022-09-23T22:50:09.267Z,72.04
2022-09-23T22:52:37.203Z,72.05
2022-09-23T22:55:07.512Z,72.03
2022-09-23T22:57:36.095Z,72.06
2022-09-23T23:00:06.628Z,72.17
2022-09-23T23:02:34.594Z,72.16
2022-09-23T23:05:02.402Z,72.18
2022-09-23T23:07:29.792Z,72.26
2022-09-23T23:09:57.583Z,72.26
2022-09-23T23:12:25.201Z,72.22
2022-09-23T23:14:52.611Z,72.24
2022-09-23T23:17:21.415Z,72.15
2022-09-23T23:19:50.104Z,72.00
2022-09-23T23:22:17.897Z,71.87
2022-09-23T23:24:45.711Z,71.81
2022-09-23T23:27:13.266Z,71.64
2022-09-23T23:29:40.580Z,71.70
2022-09-23T23:32:09.187Z,71.65
2022-09-23T23:34:37.166Z,71.59
2022-09-23T23:37:05.096Z,71.57
2022-09-23T23:39:34.481Z,71.61
2022-09-23T23:42:03.923Z,71.65
2022-09-23T23:44:33.450Z,71.62
2022-09-23T23:47:01.201Z,71.65
2022-09-23T23:49:28.627Z,71.63
2022-09-23T23:51:56.298Z,71.60
2022-09-23T23:54:23.902Z,71.50
2022-09-23T23:56:51.514Z,71.38
2022-09-23T23:59:19.425Z,71.34
